Terminal Aerodrome Forecast
Issued by NWS New Orleans/Baton Rouge, LA

Home | Current Version | Previous Version | Text Only | Print | Product List | Glossary On
Versions: 1 2 3 4 5 6 7 8 9 10 11 12 13 14 15 16 17 18 19 20 21 22 23 24 25
448
FTUS44 KLIX 312333
TAFNEW
TAF
KNEW 312333Z 0100/0124 18009KT P6SM FEW050 SCT250
     FM010300 21009KT P6SM FEW090 SCT250
     FM010900 30004KT P6SM SCT250
     FM011800 15006KT P6SM SCT035=

USA.gov is the U.S. government's official web portal to all federal, state and local government web resources and services.